createdAt,value
2023-03-29T00:02:09.791Z,100381.00
2023-03-29T00:05:13.315Z,100378.12
2023-03-29T00:08:18.451Z,100378.78
2023-03-29T00:11:22.500Z,100390.09
2023-03-29T00:14:26.886Z,100375.09
2023-03-29T00:17:30.483Z,100389.75
2023-03-29T00:20:33.316Z,100393.44
2023-03-29T00:23:36.372Z,100414.44
2023-03-29T00:26:39.067Z,100417.44
2023-03-29T00:29:42.330Z,100389.91
2023-03-29T00:32:46.091Z,100382.13
2023-03-29T00:35:49.398Z,100390.44
2023-03-29T00:38:52.560Z,100393.84
2023-03-29T00:41:55.808Z,100392.41
2023-03-29T00:45:00.424Z,100398.94
2023-03-29T00:48:07.135Z,100389.47
2023-03-29T00:51:14.396Z,100390.16
2023-03-29T00:54:18.844Z,100392.59
2023-03-29T00:57:25.827Z,100365.19
2023-03-29T01:00:35.565Z,100388.25
2023-03-29T01:03:46.328Z,100366.56
2023-03-29T01:07:07.427Z,100380.59
2023-03-29T01:10:15.610Z,100384.97
2023-03-29T01:13:26.290Z,100383.03
2023-03-29T01:16:31.290Z,100371.28
2023-03-29T01:19:59.566Z,100377.75
2023-03-29T01:23:21.302Z,100372.16
2023-03-29T01:26:44.424Z,100394.22
2023-03-29T01:30:02.163Z,100389.16
2023-03-29T01:33:10.224Z,100378.78
2023-03-29T01:36:16.564Z,100390.91
2023-03-29T01:39:20.545Z,100384.19
2023-03-29T01:42:29.330Z,100393.88
2023-03-29T01:45:48.738Z,100379.25
2023-03-29T01:48:58.929Z,100376.19
2023-03-29T01:52:10.347Z,100370.44
2023-03-29T01:55:18.542Z,100372.25
2023-03-29T01:58:26.452Z,100390.19
2023-03-29T02:01:34.852Z,100396.37
2023-03-29T02:04:45.893Z,100395.41
2023-03-29T02:07:50.553Z,100379.81
2023-03-29T02:10:54.502Z,100401.97
2023-03-29T02:13:57.799Z,100403.50
2023-03-29T02:17:15.457Z,100394.78
2023-03-29T02:20:22.743Z,100388.38
2023-03-29T02:23:49.234Z,100403.50
2023-03-29T02:26:52.682Z,100404.19
2023-03-29T02:29:57.232Z,100407.00
2023-03-29T02:33:21.980Z,100412.19
2023-03-29T02:36:34.041Z,100413.72
2023-03-29T02:39:39.758Z,100411.31
2023-03-29T02:42:46.113Z,100406.06
2023-03-29T02:45:50.624Z,100415.16
2023-03-29T02:48:56.215Z,100413.59
2023-03-29T02:52:10.889Z,100410.28
2023-03-29T02:55:17.353Z,100403.53
2023-03-29T02:58:20.670Z,100396.81
2023-03-29T03:01:23.781Z,100404.06
2023-03-29T03:04:27.279Z,100408.69
2023-03-29T03:07:30.156Z,100411.22
2023-03-29T03:10:34.829Z,100405.88
2023-03-29T03:13:39.328Z,100401.91
2023-03-29T03:16:43.370Z,100409.47
2023-03-29T03:19:46.442Z,100411.84
2023-03-29T03:22:49.693Z,100410.69
2023-03-29T03:25:52.940Z,100411.41
2023-03-29T03:28:56.894Z,100395.41
2023-03-29T03:32:04.240Z,100398.94
2023-03-29T03:35:10.054Z,100413.13
2023-03-29T03:38:12.993Z,100412.97
2023-03-29T03:41:16.096Z,100416.34
2023-03-29T03:44:18.754Z,100423.19
2023-03-29T03:47:23.777Z,100425.56
2023-03-29T03:50:27.492Z,100432.75
2023-03-29T03:53:30.888Z,100431.91
2023-03-29T03:56:35.632Z,100434.59
2023-03-29T03:59:41.147Z,100427.88
2023-03-29T04:02:46.720Z,100426.22
2023-03-29T04:05:50.051Z,100413.63
2023-03-29T04:08:53.498Z,100424.38
2023-03-29T04:12:01.577Z,100425.22
2023-03-29T04:15:06.344Z,100409.09
2023-03-29T04:18:09.762Z,100418.84
2023-03-29T04:21:13.920Z,100420.69
2023-03-29T04:24:17.306Z,100414.50
2023-03-29T04:27:22.308Z,100403.59
2023-03-29T04:30:25.378Z,100419.41
2023-03-29T04:33:30.316Z,100408.53
2023-03-29T04:36:34.280Z,100419.75
2023-03-29T04:39:38.869Z,100417.25
2023-03-29T04:42:45.900Z,100416.41
2023-03-29T04:45:48.803Z,100419.22
2023-03-29T04:48:52.438Z,100407.50
2023-03-29T04:51:57.941Z,100419.22
2023-03-29T04:55:02.757Z,100412.22
2023-03-29T04:58:07.187Z,100414.22
2023-03-29T05:01:11.075Z,100419.84
2023-03-29T05:04:14.244Z,100404.72
2023-03-29T05:07:19.268Z,100407.50
2023-03-29T05:10:23.328Z,100397.53
2023-03-29T05:13:26.433Z,100410.31
2023-03-29T05:16:30.251Z,100404.09
2023-03-29T05:19:33.710Z,100409.63
2023-03-29T05:22:38.357Z,100410.41
2023-03-29T05:25:43.945Z,100402.09
2023-03-29T05:28:46.651Z,100396.13
2023-03-29T05:31:50.233Z,100399.00
2023-03-29T05:34:53.198Z,100395.47
2023-03-29T05:37:56.840Z,100388.94
2023-03-29T05:41:00.534Z,100389.09
2023-03-29T05:44:06.555Z,100397.50
2023-03-29T05:47:09.339Z,100395.47
2023-03-29T05:50:12.622Z,100401.53
2023-03-29T05:53:16.500Z,100388.22
2023-03-29T05:56:19.666Z,100410.91
2023-03-29T05:59:23.707Z,100408.72
2023-03-29T06:02:28.675Z,100407.34
2023-03-29T06:05:31.813Z,100408.28
2023-03-29T06:08:37.671Z,100404.28
2023-03-29T06:11:41.410Z,100409.56
2023-03-29T06:14:48.250Z,100396.25
2023-03-29T06:17:51.663Z,100402.63
2023-03-29T06:20:54.553Z,100408.50
2023-03-29T06:23:58.713Z,100416.22
2023-03-29T06:27:03.441Z,100407.84
2023-03-29T06:30:07.316Z,100412.31
2023-03-29T06:33:10.648Z,100411.78
2023-03-29T06:36:16.877Z,100405.44
2023-03-29T06:39:20.232Z,100412.75
2023-03-29T06:42:24.367Z,100414.94
2023-03-29T06:45:37.456Z,100423.09
2023-03-29T06:48:41.467Z,100417.38
2023-03-29T06:51:44.527Z,100416.25
2023-03-29T06:54:47.704Z,100413.84
2023-03-29T06:57:50.540Z,100413.72
2023-03-29T07:00:53.956Z,100420.59
2023-03-29T07:03:58.634Z,100427.22
2023-03-29T07:07:03.586Z,100418.88
2023-03-29T07:10:07.406Z,100414.09
2023-03-29T07:13:13.951Z,100415.56
2023-03-29T07:16:19.337Z,100414.41
2023-03-29T07:19:25.277Z,100425.72
2023-03-29T07:22:32.180Z,100432.56
2023-03-29T07:25:36.440Z,100421.41
2023-03-29T07:28:39.606Z,100417.63
2023-03-29T07:31:43.776Z,100413.56
2023-03-29T07:34:51.289Z,100420.94
2023-03-29T07:37:55.953Z,100398.56
2023-03-29T07:40:59.348Z,100398.41
2023-03-29T07:44:09.114Z,100404.34
2023-03-29T07:47:12.724Z,100383.91
2023-03-29T07:50:17.511Z,100390.25
2023-03-29T07:53:21.251Z,100397.31
2023-03-29T07:56:24.951Z,100388.06
2023-03-29T07:59:27.825Z,100398.44
2023-03-29T08:02:31.264Z,100401.12
2023-03-29T08:05:41.343Z,100392.06
2023-03-29T08:08:45.287Z,100393.59
2023-03-29T08:11:49.002Z,100400.38
2023-03-29T08:14:52.051Z,100395.00
2023-03-29T08:17:56.398Z,100385.47
2023-03-29T08:21:01.485Z,100391.16
2023-03-29T08:24:05.179Z,100384.50
2023-03-29T08:27:08.769Z,100382.25
2023-03-29T08:30:12.331Z,100376.78
2023-03-29T08:33:15.739Z,100359.69
2023-03-29T08:36:19.382Z,100386.19
2023-03-29T08:39:22.421Z,100357.94
2023-03-29T08:42:39.031Z,100363.19
2023-03-29T08:46:20.623Z,100363.75
2023-03-29T08:49:24.002Z,100361.69
2023-03-29T08:52:43.073Z,100369.94
2023-03-29T08:55:49.026Z,100365.16
2023-03-29T08:58:56.073Z,100348.53
2023-03-29T09:02:02.329Z,100352.81
2023-03-29T09:05:21.011Z,100362.69
2023-03-29T09:08:25.645Z,100358.84
2023-03-29T09:11:41.859Z,100363.97
2023-03-29T09:15:04.246Z,100366.00
2023-03-29T09:18:26.811Z,100357.41
2023-03-29T09:21:46.816Z,100340.97
2023-03-29T09:24:56.414Z,100345.81
2023-03-29T09:28:10.578Z,100353.56
2023-03-29T09:31:29.987Z,100349.31
2023-03-29T09:34:43.577Z,100341.19
2023-03-29T09:37:49.221Z,100340.25
2023-03-29T09:40:57.380Z,100319.63
2023-03-29T09:44:05.736Z,100313.69
2023-03-29T09:47:19.216Z,100339.28
2023-03-29T09:50:51.395Z,100332.37
2023-03-29T09:53:57.279Z,100328.16
2023-03-29T09:57:01.040Z,100310.12
2023-03-29T10:00:06.240Z,100309.62
2023-03-29T10:03:19.911Z,100311.59
2023-03-29T10:06:25.502Z,100303.59
2023-03-29T10:09:30.401Z,100304.31
2023-03-29T10:12:34.112Z,100297.66
2023-03-29T10:15:37.110Z,100298.22
2023-03-29T10:18:42.906Z,100303.56
2023-03-29T10:21:49.110Z,100296.03
2023-03-29T10:24:54.212Z,100302.63
2023-03-29T10:28:17.602Z,100291.28
2023-03-29T10:31:22.815Z,100281.50
2023-03-29T10:34:28.110Z,100283.03
2023-03-29T10:37:31.723Z,100285.53
2023-03-29T10:40:35.710Z,100263.94
2023-03-29T10:43:51.132Z,100252.16
2023-03-29T10:46:53.787Z,100273.22
2023-03-29T10:50:01.901Z,100274.41
2023-03-29T10:53:25.459Z,100261.94
2023-03-29T10:56:42.574Z,100264.97
2023-03-29T11:00:08.124Z,100260.72
2023-03-29T11:03:40.263Z,100258.47
2023-03-29T11:06:47.743Z,100260.75
2023-03-29T11:10:15.671Z,100237.81
2023-03-29T11:13:42.578Z,100257.47
2023-03-29T11:16:52.450Z,100252.09
2023-03-29T11:20:12.585Z,100241.97
2023-03-29T11:23:22.336Z,100242.16
2023-03-29T11:26:36.750Z,100231.69
2023-03-29T11:30:00.712Z,100222.44
2023-03-29T11:33:17.823Z,100221.41
2023-03-29T11:36:50.562Z,100209.81
2023-03-29T11:40:21.199Z,100211.75
2023-03-29T11:43:27.304Z,100202.28
2023-03-29T11:46:39.594Z,100204.31
2023-03-29T11:49:56.256Z,100201.72
2023-03-29T11:53:14.023Z,100187.19
2023-03-29T11:56:33.307Z,100193.75
2023-03-29T11:59:45.070Z,100186.66
2023-03-29T12:02:59.749Z,100189.03
2023-03-29T12:06:15.209Z,100176.06
2023-03-29T12:09:34.265Z,100175.53
2023-03-29T12:13:00.384Z,100178.38
2023-03-29T12:16:14.940Z,100162.78
2023-03-29T12:19:25.877Z,100162.16
2023-03-29T12:22:28.897Z,100153.72
2023-03-29T12:25:44.583Z,100152.78
2023-03-29T12:29:08.346Z,100156.56
2023-03-29T12:32:39.233Z,100149.84
2023-03-29T12:35:53.270Z,100154.63
2023-03-29T12:38:57.969Z,100155.25
2023-03-29T12:42:21.720Z,100149.00
2023-03-29T12:45:34.359Z,100133.03
2023-03-29T12:48:40.293Z,100122.41
2023-03-29T12:51:43.904Z,100120.28
2023-03-29T12:54:58.630Z,100121.03
2023-03-29T12:58:08.367Z,100115.97
2023-03-29T13:01:33.313Z,100107.44
2023-03-29T13:04:43.783Z,100098.25
2023-03-29T13:07:49.787Z,100104.59
2023-03-29T13:10:56.770Z,100094.06
2023-03-29T13:14:02.018Z,100103.81
2023-03-29T13:17:18.515Z,100112.47
2023-03-29T13:20:37.569Z,100104.91
2023-03-29T13:23:43.381Z,100102.66
2023-03-29T13:26:46.225Z,100087.94
2023-03-29T13:30:00.557Z,100084.16
2023-03-29T13:33:21.776Z,100100.91
2023-03-29T13:36:31.927Z,100100.12
2023-03-29T13:39:40.862Z,100103.06
2023-03-29T13:42:46.749Z,100094.94
2023-03-29T13:45:58.783Z,100079.59
2023-03-29T13:49:22.135Z,100093.25
2023-03-29T13:52:34.552Z,100099.13
2023-03-29T13:55:45.643Z,100099.03
2023-03-29T13:58:52.391Z,100097.97
2023-03-29T14:01:58.184Z,100103.62
2023-03-29T14:05:04.220Z,100099.59
2023-03-29T14:08:27.138Z,100102.25
2023-03-29T14:11:31.194Z,100107.38
2023-03-29T14:14:33.930Z,100120.03
2023-03-29T14:17:37.563Z,100104.81
2023-03-29T14:20:44.566Z,100117.53
2023-03-29T14:23:55.266Z,100105.50
2023-03-29T14:26:57.964Z,100105.25
2023-03-29T14:30:01.138Z,100091.41
2023-03-29T14:33:05.267Z,100093.28
2023-03-29T14:36:16.599Z,100097.25
2023-03-29T14:39:22.335Z,100092.72
2023-03-29T14:42:27.959Z,100083.94
2023-03-29T14:45:31.000Z,100078.72
2023-03-29T14:48:35.720Z,100072.44
2023-03-29T14:51:40.551Z,100070.97
2023-03-29T14:54:48.640Z,100069.97
2023-03-29T14:57:54.784Z,100065.13
2023-03-29T15:00:58.005Z,100067.84
2023-03-29T15:04:09.181Z,100078.84
2023-03-29T15:07:13.256Z,100075.81
2023-03-29T15:10:19.314Z,100085.69
2023-03-29T15:13:24.694Z,100075.75
2023-03-29T15:16:30.469Z,100071.97
2023-03-29T15:19:34.402Z,100072.81
2023-03-29T15:22:39.052Z,100065.38
2023-03-29T15:25:58.493Z,100060.63
2023-03-29T15:29:13.829Z,100061.94
2023-03-29T15:32:25.277Z,100065.03
2023-03-29T15:35:27.983Z,100063.25
2023-03-29T15:38:40.954Z,100057.47
2023-03-29T15:41:48.725Z,100053.66
2023-03-29T15:44:56.307Z,100058.63
2023-03-29T15:48:02.041Z,100043.72
2023-03-29T15:51:06.990Z,100052.38
2023-03-29T15:54:09.857Z,100052.00
2023-03-29T15:57:15.895Z,100040.03
2023-03-29T16:00:21.101Z,100037.94
2023-03-29T16:03:24.673Z,100034.59
2023-03-29T16:06:27.447Z,100037.69
2023-03-29T16:09:30.794Z,100037.44
2023-03-29T16:12:35.738Z,100036.25
2023-03-29T16:15:40.474Z,100035.69
2023-03-29T16:18:43.212Z,100034.25
2023-03-29T16:21:46.253Z,100026.09
2023-03-29T16:24:48.909Z,100021.34
2023-03-29T16:27:52.845Z,100023.81
2023-03-29T16:30:55.593Z,100034.84
2023-03-29T16:33:58.540Z,100043.13
2023-03-29T16:37:01.248Z,100044.19
2023-03-29T16:40:07.761Z,100038.97
2023-03-29T16:43:19.426Z,100040.75
2023-03-29T16:46:23.373Z,100035.62
2023-03-29T16:49:26.396Z,100018.44
2023-03-29T16:52:29.340Z,100034.28
2023-03-29T16:55:32.056Z,100023.84
2023-03-29T16:58:35.128Z,100037.94
2023-03-29T17:01:38.720Z,100037.19
2023-03-29T17:04:41.972Z,100041.44
2023-03-29T17:07:45.675Z,100042.59
2023-03-29T17:10:53.295Z,100044.13
2023-03-29T17:13:56.506Z,100033.34
2023-03-29T17:16:59.592Z,100031.53
2023-03-29T17:20:02.477Z,100027.41
2023-03-29T17:23:05.566Z,100019.31
2023-03-29T17:26:08.533Z,100017.75
2023-03-29T17:29:11.580Z,100011.81
2023-03-29T17:32:14.381Z,100028.25
2023-03-29T17:35:17.324Z,100026.44
2023-03-29T17:38:21.196Z,100026.69
2023-03-29T17:41:24.148Z,100035.28
2023-03-29T17:44:27.071Z,100027.44
2023-03-29T17:47:30.044Z,100031.59
2023-03-29T17:50:32.729Z,100034.53
2023-03-29T17:53:36.209Z,100030.59
2023-03-29T17:56:38.902Z,100028.56
2023-03-29T17:59:42.185Z,100023.00
2023-03-29T18:02:45.469Z,100011.84
2023-03-29T18:05:48.654Z,100026.84
2023-03-29T18:08:53.184Z,100014.69
2023-03-29T18:11:56.819Z,100024.03
2023-03-29T18:14:59.543Z,100029.47
2023-03-29T18:18:02.570Z,100030.37
2023-03-29T18:21:07.019Z,100037.75
2023-03-29T18:24:09.960Z,100040.91
2023-03-29T18:27:13.123Z,100038.66
2023-03-29T18:30:16.881Z,100039.19
2023-03-29T18:33:19.444Z,100044.56
2023-03-29T18:36:22.548Z,100048.53
2023-03-29T18:39:25.821Z,100057.72
2023-03-29T18:42:28.877Z,100063.59
2023-03-29T18:45:31.635Z,100050.97
2023-03-29T18:48:41.897Z,100056.56
2023-03-29T18:51:46.333Z,100060.44
2023-03-29T18:54:49.307Z,100070.25
2023-03-29T18:57:52.000Z,100047.81
2023-03-29T19:00:55.092Z,100051.53
2023-03-29T19:03:57.857Z,100062.00
2023-03-29T19:07:01.900Z,100060.34
2023-03-29T19:10:05.420Z,100062.06
2023-03-29T19:13:08.491Z,100065.62
2023-03-29T19:16:12.173Z,100070.91
2023-03-29T19:19:15.293Z,100061.00
2023-03-29T19:22:17.901Z,100068.72
2023-03-29T19:25:21.204Z,100062.06
2023-03-29T19:28:24.778Z,100055.19
2023-03-29T19:31:28.115Z,100067.53
2023-03-29T19:34:31.090Z,100060.28
2023-03-29T19:37:34.097Z,100071.53
2023-03-29T19:40:36.737Z,100069.47
2023-03-29T19:43:39.851Z,100055.97
2023-03-29T19:46:43.212Z,100059.72
2023-03-29T19:49:46.562Z,100055.81
2023-03-29T19:52:49.295Z,100063.13
2023-03-29T19:55:52.420Z,100052.94
2023-03-29T19:58:55.730Z,100062.97
2023-03-29T20:01:59.358Z,100045.91
2023-03-29T20:05:02.788Z,100063.63
2023-03-29T20:08:06.768Z,100050.13
2023-03-29T20:11:11.569Z,100055.78
2023-03-29T20:14:14.311Z,100071.59
2023-03-29T20:17:17.176Z,100054.72
2023-03-29T20:20:22.065Z,100060.13
2023-03-29T20:23:25.087Z,100048.06
2023-03-29T20:26:28.185Z,100040.56
2023-03-29T20:29:33.256Z,100042.88
2023-03-29T20:32:36.879Z,100040.59
2023-03-29T20:35:39.880Z,100044.78
2023-03-29T20:38:42.606Z,100036.25
2023-03-29T20:41:47.783Z,100046.03
2023-03-29T20:44:53.846Z,100050.84
2023-03-29T20:47:57.902Z,100051.28
2023-03-29T20:51:03.076Z,100043.81
2023-03-29T20:54:07.665Z,100035.53
2023-03-29T20:57:14.138Z,100026.16
2023-03-29T21:00:19.697Z,100039.88
2023-03-29T21:03:22.410Z,100024.53
2023-03-29T21:06:25.483Z,100051.16
2023-03-29T21:09:28.361Z,100038.25
2023-03-29T21:12:31.577Z,100041.19
2023-03-29T21:15:35.255Z,100027.22
2023-03-29T21:18:39.352Z,100028.88
2023-03-29T21:21:43.218Z,100032.84
2023-03-29T21:24:46.225Z,100042.25
2023-03-29T21:27:49.208Z,100031.41
2023-03-29T21:30:52.251Z,100023.66
2023-03-29T21:33:56.593Z,100030.53
2023-03-29T21:36:59.574Z,100014.75
2023-03-29T21:40:05.942Z,100030.34
2023-03-29T21:43:09.301Z,100033.91
2023-03-29T21:46:13.871Z,100030.19
2023-03-29T21:49:16.897Z,100034.56
2023-03-29T21:52:20.308Z,100029.56
2023-03-29T21:55:23.245Z,100023.31
2023-03-29T21:58:26.481Z,100034.97
2023-03-29T22:01:29.691Z,100034.97
2023-03-29T22:04:37.067Z,100015.84
2023-03-29T22:07:40.142Z,100008.94
2023-03-29T22:10:43.054Z,100010.37
2023-03-29T22:13:46.292Z,100003.31
2023-03-29T22:16:49.358Z,100006.66
2023-03-29T22:19:52.425Z,99998.53
2023-03-29T22:22:55.772Z,99992.72
2023-03-29T22:25:58.416Z,99978.34
2023-03-29T22:29:01.698Z,99979.59
2023-03-29T22:32:04.934Z,99991.47
2023-03-29T22:35:08.732Z,99994.37
2023-03-29T22:38:11.354Z,99977.13
2023-03-29T22:41:16.131Z,99987.09
2023-03-29T22:44:18.729Z,99982.72
2023-03-29T22:47:22.351Z,99983.56
2023-03-29T22:50:25.089Z,99979.59
2023-03-29T22:53:28.485Z,99985.19
2023-03-29T22:56:31.075Z,99981.25
2023-03-29T22:59:34.061Z,99990.66
2023-03-29T23:02:37.268Z,99984.41
2023-03-29T23:05:40.458Z,99971.91
2023-03-29T23:08:42.982Z,99956.97
2023-03-29T23:11:46.035Z,99968.19
2023-03-29T23:14:48.705Z,99958.84
2023-03-29T23:17:51.813Z,99946.81
2023-03-29T23:20:56.640Z,99963.03
2023-03-29T23:24:00.597Z,99960.75
2023-03-29T23:27:04.935Z,99947.63
2023-03-29T23:30:09.699Z,99954.91
2023-03-29T23:33:14.532Z,99960.56
2023-03-29T23:36:19.274Z,99968.88
2023-03-29T23:39:23.659Z,99968.88
2023-03-29T23:42:26.678Z,99964.50
2023-03-29T23:45:29.561Z,99961.81
2023-03-29T23:48:34.222Z,99955.34
2023-03-29T23:51:37.027Z,99947.63
2023-03-29T23:54:40.119Z,99958.88
2023-03-29T23:57:42.981Z,99952.44
